Time;durP1;ratioP1;P1;durP2;ratioP2;P2;SDS_P1;SDS_P2;PMS_P1;PMS_P2;Temp;Humidity;BMP_temperature;BMP_pressure;BME280_temperature;BME280_humidity;BME280_pressure;Samples;Min_cycle;Max_cycle;Signal;HPM_P1;HPM_P2
2022/06/28 00:02:21;;;;;;;8.57;3.55;;;17.00;76.50;;;;;;5044405;28;20436;-67
2022/06/28 00:04:47;;;;;;;5.82;2.92;;;17.00;76.50;;;;;;5050868;28;20033;-67
2022/06/28 00:07:13;;;;;;;6.55;3.22;;;17.00;76.60;;;;;;5046537;28;20112;-67
2022/06/28 00:09:38;;;;;;;6.85;3.40;;;17.00;76.50;;;;;;5047373;28;20036;-67
2022/06/28 00:12:04;;;;;;;8.50;3.80;;;17.00;77.20;;;;;;5043280;28;20201;-67
2022/06/28 00:17:14;;;;;;;8.88;3.72;;;17.00;76.60;;;;;;5039743;28;20053;-65
2022/06/28 00:19:40;;;;;;;5.80;2.80;;;17.00;76.70;;;;;;5041845;28;20098;-64
2022/06/28 00:22:05;;;;;;;8.20;3.50;;;16.90;76.60;;;;;;5052253;28;20028;-65
2022/06/28 00:24:31;;;;;;;6.55;3.35;;;17.00;76.70;;;;;;5048740;28;20029;-65
2022/06/28 00:26:57;;;;;;;6.30;3.40;;;17.00;76.70;;;;;;5053272;28;20438;-65
2022/06/28 00:29:22;;;;;;;8.05;3.33;;;17.00;76.70;;;;;;5039769;28;20044;-65
2022/06/28 00:31:48;;;;;;;6.97;3.80;;;17.00;76.70;;;;;;5046298;28;20032;-65
2022/06/28 00:34:14;;;;;;;6.53;3.40;;;16.90;76.70;;;;;;5045343;28;20441;-65
2022/06/28 00:36:40;;;;;;;6.85;3.10;;;16.90;76.70;;;;;;5041948;28;20034;-65
2022/06/28 00:39:06;;;;;;;6.93;3.78;;;16.90;76.70;;;;;;5046623;28;20029;-65
2022/06/28 00:41:32;;;;;;;9.48;3.30;;;16.90;76.80;;;;;;5034185;28;20036;-65
2022/06/28 00:43:59;;;;;;;7.65;3.95;;;16.90;76.90;;;;;;5052787;28;20357;-65
2022/06/28 00:46:25;;;;;;;7.82;3.83;;;16.90;76.90;;;;;;5044811;28;20056;-65
2022/06/28 00:48:51;;;;;;;7.63;3.72;;;16.90;76.90;;;;;;5044980;28;20477;-65
2022/06/28 00:51:17;;;;;;;7.75;3.60;;;16.90;76.90;;;;;;5042394;28;20053;-65
2022/06/28 00:53:43;;;;;;;7.55;3.83;;;16.90;76.90;;;;;;5054219;28;20029;-65
2022/06/28 00:56:08;;;;;;;10.55;4.43;;;16.90;76.90;;;;;;5043384;28;20470;-65
2022/06/28 00:58:34;;;;;;;7.95;4.13;;;16.80;76.80;;;;;;5048960;28;20036;-65
2022/06/28 01:01:00;;;;;;;7.43;4.22;;;16.80;76.80;;;;;;5039687;28;20033;-65
2022/06/28 01:03:27;;;;;;;7.03;4.00;;;16.80;76.90;;;;;;5043214;28;20108;-67
2022/06/28 01:05:54;;;;;;;8.98;5.13;;;16.80;76.90;;;;;;5042962;28;20100;-67
2022/06/28 01:08:23;;;;;;;7.18;4.72;;;16.80;76.90;;;;;;5030811;28;20020;-67
2022/06/28 01:10:49;;;;;;;7.72;4.88;;;16.80;77.00;;;;;;5036085;28;20459;-67
2022/06/28 01:13:17;;;;;;;7.75;4.93;;;16.80;77.00;;;;;;5039888;28;20052;-67
2022/06/28 01:15:46;;;;;;;8.35;5.28;;;16.80;77.10;;;;;;5048867;28;20033;-66
2022/06/28 01:18:13;;;;;;;9.25;5.07;;;16.80;77.00;;;;;;5055067;28;20078;-67
2022/06/28 01:20:43;;;;;;;9.32;5.30;;;16.80;77.10;;;;;;5040515;28;20016;-66
2022/06/28 01:23:20;;;;;;;8.90;5.95;;;16.80;77.10;;;;;;5025472;28;20053;-67
2022/06/28 01:25:48;;;;;;;9.30;5.80;;;16.80;77.10;;;;;;5040427;28;20533;-66
2022/06/28 01:28:19;;;;;;;8.35;5.40;;;16.80;77.20;;;;;;5039570;28;20048;-66
2022/06/28 01:30:48;;;;;;;9.35;5.97;;;16.70;77.10;;;;;;5048272;28;20457;-66
2022/06/28 01:33:19;;;;;;;9.25;5.82;;;16.80;77.20;;;;;;5045172;28;20057;-67
2022/06/28 01:35:45;;;;;;;10.35;6.18;;;16.70;77.10;;;;;;5051590;28;20399;-65
2022/06/28 01:38:11;;;;;;;8.07;5.57;;;16.70;77.10;;;;;;5044796;28;20454;-65
2022/06/28 01:40:38;;;;;;;9.70;6.78;;;16.70;77.10;;;;;;5046769;28;20357;-65
2022/06/28 01:43:04;;;;;;;10.13;6.60;;;16.70;77.10;;;;;;5034556;28;20021;-65
2022/06/28 01:45:36;;;;;;;10.70;6.95;;;16.70;77.20;;;;;;5031330;28;20040;-65
2022/06/28 01:48:01;;;;;;;9.93;7.00;;;16.70;77.20;;;;;;5048978;28;20092;-65
2022/06/28 01:50:49;;;;;;;8.05;5.95;;;16.70;77.20;;;;;;5050871;28;20044;-65
2022/06/28 01:53:15;;;;;;;9.98;6.68;;;16.70;77.20;;;;;;5027688;28;20071;-65
2022/06/28 01:55:53;;;;;;;9.75;6.38;;;16.60;77.20;;;;;;5044527;28;20696;-65
2022/06/28 01:58:31;;;;;;;9.07;5.88;;;16.60;77.20;;;;;;5040750;28;20024;-65
2022/06/28 02:00:58;;;;;;;10.05;6.75;;;16.60;77.20;;;;;;5045186;28;20034;-65
2022/06/28 02:03:23;;;;;;;9.95;6.60;;;16.60;77.20;;;;;;5043677;28;20024;-65
2022/06/28 02:06:09;;;;;;;9.25;6.68;;;16.60;77.30;;;;;;5049388;28;20071;-65
2022/06/28 02:08:37;;;;;;;9.32;6.35;;;16.60;77.30;;;;;;5029283;28;20018;-65
2022/06/28 02:11:06;;;;;;;11.25;7.10;;;16.60;78.00;;;;;;5046200;28;20364;-65
2022/06/28 02:13:47;;;;;;;9.98;6.43;;;16.50;77.30;;;;;;5028348;28;20024;-65
2022/06/28 02:16:13;;;;;;;10.05;6.05;;;16.50;77.30;;;;;;5051164;28;20044;-66
2022/06/28 02:18:39;;;;;;;10.05;6.43;;;16.50;77.30;;;;;;5047791;28;20516;-66
2022/06/28 02:21:06;;;;;;;9.30;6.97;;;16.50;77.30;;;;;;5052934;28;20025;-66
2022/06/28 02:23:32;;;;;;;9.45;6.63;;;16.50;77.30;;;;;;5041495;28;20095;-66
2022/06/28 02:25:58;;;;;;;8.90;6.55;;;16.50;77.30;;;;;;5053036;28;20359;-66
2022/06/28 02:28:24;;;;;;;10.93;7.15;;;16.40;77.30;;;;;;5041508;28;20090;-66
2022/06/28 02:30:51;;;;;;;9.77;7.03;;;16.40;77.20;;;;;;5054553;28;20111;-66
2022/06/28 02:33:17;;;;;;;9.63;6.72;;;16.40;77.20;;;;;;5028201;28;20071;-67
2022/06/28 02:41:11;;;;;;;9.35;6.07;;;16.40;77.20;;;;;;5054987;28;20416;-67
2022/06/28 02:43:37;;;;;;;8.93;6.28;;;16.30;77.10;;;;;;5027107;28;20025;-66
2022/06/28 02:46:02;;;;;;;10.57;6.35;;;16.30;77.10;;;;;;5016790;28;20036;-66
2022/06/28 02:48:28;;;;;;;8.57;5.90;;;16.30;77.10;;;;;;5043699;28;20319;-66
2022/06/28 02:50:53;;;;;;;8.73;5.53;;;16.30;77.10;;;;;;5041462;28;20112;-66
2022/06/28 02:53:19;;;;;;;7.50;5.55;;;16.30;77.10;;;;;;5037227;28;20037;-65
2022/06/28 02:55:45;;;;;;;7.80;5.38;;;16.30;77.10;;;;;;5047389;28;20036;-65
2022/06/28 02:58:12;;;;;;;9.38;6.07;;;16.30;77.10;;;;;;5045402;28;20104;-66
2022/06/28 03:00:37;;;;;;;7.97;5.90;;;16.20;77.00;;;;;;5053609;28;20159;-65
2022/06/28 03:03:03;;;;;;;11.10;5.82;;;16.20;77.00;;;;;;5022029;28;20021;-65
2022/06/28 03:05:29;;;;;;;8.23;4.70;;;16.20;76.90;;;;;;5020089;28;20029;-65
2022/06/28 03:07:55;;;;;;;9.00;5.80;;;16.20;77.00;;;;;;5038373;28;20036;-65
2022/06/28 03:10:24;;;;;;;8.43;5.60;;;16.20;77.00;;;;;;5041067;28;20024;-65
2022/06/28 03:12:50;;;;;;;9.20;5.35;;;16.20;77.00;;;;;;5035659;28;20033;-65
2022/06/28 03:15:15;;;;;;;9.93;5.18;;;16.10;77.00;;;;;;5036494;28;20052;-66
2022/06/28 03:17:42;;;;;;;8.55;5.60;;;16.10;77.00;;;;;;5032341;28;20112;-68
2022/06/28 03:20:10;;;;;;;9.43;6.07;;;16.10;77.00;;;;;;5032081;28;20036;-66
2022/06/28 03:22:37;;;;;;;9.75;6.43;;;16.10;77.00;;;;;;5038457;28;20025;-66
2022/06/28 03:25:03;;;;;;;9.95;6.18;;;16.10;77.00;;;;;;5038390;28;20374;-66
2022/06/28 03:27:29;;;;;;;9.93;5.75;;;16.10;76.90;;;;;;5017575;28;20037;-66
2022/06/28 03:29:54;;;;;;;9.20;5.30;;;16.10;77.00;;;;;;5034633;28;20091;-67
2022/06/28 03:32:26;;;;;;;8.65;5.63;;;16.10;76.90;;;;;;5038168;28;20052;-66
2022/06/28 03:34:52;;;;;;;10.43;6.35;;;16.10;76.90;;;;;;5034023;28;20316;-66
2022/06/28 03:37:20;;;;;;;8.25;5.13;;;16.10;77.00;;;;;;5034481;28;20030;-66
2022/06/28 03:39:48;;;;;;;8.50;5.82;;;16.10;77.00;;;;;;5035028;28;20079;-66
2022/06/28 03:42:14;;;;;;;9.40;5.95;;;16.00;77.00;;;;;;5008100;28;20033;-67
2022/06/28 03:44:43;;;;;;;9.05;5.22;;;16.10;77.00;;;;;;5038184;28;20025;-67
2022/06/28 03:47:09;;;;;;;8.02;5.57;;;16.00;76.90;;;;;;5033210;28;20374;-65
2022/06/28 03:50:03;;;;;;;8.68;5.93;;;16.10;77.00;;;;;;5044205;28;20039;-66
2022/06/28 03:52:48;;;;;;;8.43;5.18;;;16.00;76.90;;;;;;5041004;28;20370;-64
2022/06/28 03:55:43;;;;;;;9.20;5.50;;;16.00;77.00;;;;;;5039867;28;20508;-64
2022/06/28 03:58:08;;;;;;;8.57;5.85;;;16.00;77.00;;;;;;5034979;28;20037;-64
2022/06/28 04:00:35;;;;;;;7.85;5.22;;;16.00;77.00;;;;;;5046259;28;20450;-64
2022/06/28 04:03:01;;;;;;;7.90;5.50;;;16.00;77.00;;;;;;5036390;28;20059;-64
2022/06/28 04:05:34;;;;;;;8.30;5.57;;;16.00;77.00;;;;;;5045257;28;20036;-64
2022/06/28 04:08:02;;;;;;;9.65;5.72;;;16.00;77.00;;;;;;5030614;28;20025;-64
2022/06/28 04:11:15;;;;;;;9.07;5.18;;;16.00;77.00;;;;;;5047691;28;20095;-64
2022/06/28 04:13:50;;;;;;;9.55;5.20;;;16.00;77.00;;;;;;5038185;28;20025;-64
2022/06/28 04:16:18;;;;;;;9.23;5.63;;;16.00;77.00;;;;;;5048193;28;20405;-64
2022/06/28 04:18:45;;;;;;;9.35;5.22;;;16.00;77.00;;;;;;5043387;28;20366;-64
2022/06/28 04:21:24;;;;;;;8.70;5.20;;;16.00;77.00;;;;;;5051323;28;20021;-64
2022/06/28 04:24:05;;;;;;;8.70;5.30;;;16.00;77.00;;;;;;5051380;28;20029;-64
2022/06/28 04:26:31;;;;;;;9.57;5.60;;;16.10;77.10;;;;;;5051327;28;20044;-64
2022/06/28 04:28:58;;;;;;;10.00;5.85;;;16.10;77.10;;;;;;5039145;28;20025;-64
2022/06/28 04:31:26;;;;;;;10.05;5.57;;;16.10;77.20;;;;;;5030683;28;20028;-65
2022/06/28 04:33:52;;;;;;;11.32;5.57;;;16.10;77.20;;;;;;5051232;28;20025;-64
2022/06/28 04:36:23;;;;;;;9.07;5.70;;;16.10;77.20;;;;;;5031392;28;20087;-64
2022/06/28 04:38:49;;;;;;;10.57;6.25;;;16.10;77.20;;;;;;5039991;28;20064;-64
2022/06/28 04:41:19;;;;;;;10.38;6.88;;;16.20;77.40;;;;;;5044450;28;20021;-64
2022/06/28 04:44:03;;;;;;;9.07;6.75;;;16.20;77.50;;;;;;5037038;28;20043;-64
2022/06/28 04:46:31;;;;;;;12.27;6.80;;;16.20;78.20;;;;;;5046929;28;20061;-64
2022/06/28 04:49:01;;;;;;;10.27;7.03;;;16.30;77.70;;;;;;5042098;28;20025;-64
2022/06/28 04:51:36;;;;;;;9.80;6.10;;;16.30;77.80;;;;;;5054190;28;20095;-64
2022/06/28 04:54:02;;;;;;;9.18;6.95;;;16.30;77.80;;;;;;5025430;28;20033;-65
2022/06/28 04:56:31;;;;;;;9.02;6.28;;;16.40;77.80;;;;;;5049969;28;20025;-65
2022/06/28 04:58:57;;;;;;;10.35;6.45;;;16.40;77.90;;;;;;5031876;28;20033;-65
2022/06/28 05:01:23;;;;;;;7.88;5.95;;;16.50;77.80;;;;;;5041752;28;20025;-65
2022/06/28 05:03:49;;;;;;;9.50;5.90;;;16.50;77.80;;;;;;5052321;28;20037;-64
2022/06/28 05:06:33;;;;;;;8.50;4.72;;;16.60;77.70;;;;;;5055129;28;20049;-65
2022/06/28 05:08:59;;;;;;;9.98;5.47;;;16.60;77.60;;;;;;5054607;28;20040;-64
2022/06/28 05:11:26;;;;;;;8.90;5.13;;;16.70;77.50;;;;;;5044018;28;20377;-65
2022/06/28 05:14:15;;;;;;;11.23;5.80;;;16.80;77.30;;;;;;5050323;28;20030;-64
2022/06/28 05:16:41;;;;;;;9.10;4.70;;;17.90;75.40;;;;;;5047972;28;20132;-65
2022/06/28 05:19:08;;;;;;;8.40;4.38;;;18.60;73.60;;;;;;5045179;28;20021;-66
2022/06/28 05:21:36;;;;;;;8.73;4.10;;;18.70;72.90;;;;;;5044272;28;20037;-65
2022/06/28 05:24:02;;;;;;;7.45;4.45;;;18.70;72.90;;;;;;5055798;28;20025;-65
2022/06/28 05:26:39;;;;;;;8.48;4.72;;;18.60;72.90;;;;;;5040775;28;20061;-65
2022/06/28 05:29:15;;;;;;;8.80;4.57;;;18.60;72.90;;;;;;5040668;28;20378;-65
2022/06/28 05:31:41;;;;;;;8.00;4.43;;;18.50;73.50;;;;;;5043520;28;20034;-65
2022/06/28 05:34:07;;;;;;;8.00;4.00;;;18.50;73.00;;;;;;5053121;28;20110;-65
2022/06/28 05:36:33;;;;;;;7.45;4.13;;;18.40;72.90;;;;;;5040368;28;20443;-66
2022/06/28 05:38:59;;;;;;;9.10;4.20;;;18.40;73.00;;;;;;5029618;28;20442;-66
2022/06/28 05:41:25;;;;;;;7.28;4.38;;;18.40;73.10;;;;;;5047522;28;20033;-65
2022/06/28 05:43:51;;;;;;;11.15;4.07;;;18.40;73.10;;;;;;5038761;28;20028;-65
2022/06/28 05:46:16;;;;;;;10.10;4.13;;;18.40;73.00;;;;;;5048791;28;20189;-66
2022/06/28 05:48:42;;;;;;;7.40;3.75;;;18.40;72.90;;;;;;5033874;28;20041;-64
2022/06/28 05:51:07;;;;;;;9.05;4.13;;;18.50;72.80;;;;;;5046636;28;20029;-64
2022/06/28 05:53:33;;;;;;;10.32;4.22;;;18.60;72.70;;;;;;5023047;28;20022;-63
2022/06/28 05:55:59;;;;;;;10.57;4.03;;;18.60;72.50;;;;;;5046766;28;20442;-63
2022/06/28 05:58:25;;;;;;;8.25;4.35;;;18.70;72.50;;;;;;5050138;28;20021;-63
2022/06/28 06:00:51;;;;;;;7.82;4.15;;;18.70;72.30;;;;;;5045713;28;20112;-64
2022/06/28 06:03:16;;;;;;;7.28;3.63;;;18.80;72.10;;;;;;5054646;28;20053;-64
2022/06/28 06:05:42;;;;;;;10.65;4.32;;;18.90;71.80;;;;;;5048138;28;20033;-64
2022/06/28 06:08:09;;;;;;;9.07;3.90;;;19.00;71.60;;;;;;5052797;28;20033;-63
2022/06/28 06:10:35;;;;;;;10.70;3.92;;;19.00;71.30;;;;;;5051063;28;20033;-64
2022/06/28 06:13:02;;;;;;;9.50;4.20;;;19.10;71.10;;;;;;5043784;28;20024;-64
2022/06/28 06:15:28;;;;;;;9.30;4.45;;;19.10;70.80;;;;;;5052721;28;20132;-65
2022/06/28 06:17:54;;;;;;;9.00;3.78;;;19.20;70.60;;;;;;5026282;28;20113;-64
2022/06/28 06:20:19;;;;;;;10.02;3.95;;;19.20;70.50;;;;;;5045345;28;20032;-64
2022/06/28 06:22:47;;;;;;;8.60;3.85;;;19.30;70.40;;;;;;5042968;28;20053;-63
2022/06/28 06:25:33;;;;;;;11.05;3.70;;;19.40;70.10;;;;;;5035109;28;20037;-64
2022/06/28 06:27:59;;;;;;;8.85;3.65;;;19.50;69.70;;;;;;5040725;28;20447;-63
2022/06/28 06:30:24;;;;;;;10.25;4.38;;;19.60;69.50;;;;;;5045103;28;20111;-64
2022/06/28 06:33:08;;;;;;;9.15;4.53;;;19.60;69.30;;;;;;5043620;28;20066;-66
2022/06/28 06:35:52;;;;;;;10.13;4.07;;;19.70;68.90;;;;;;5052325;28;20028;-63
2022/06/28 06:38:18;;;;;;;9.35;4.00;;;19.80;68.70;;;;;;5041705;28;20029;-64
2022/06/28 06:40:47;;;;;;;10.02;3.97;;;19.90;68.60;;;;;;5048433;28;20493;-63
2022/06/28 06:43:12;;;;;;;8.48;4.32;;;20.00;68.40;;;;;;5044551;28;20100;-63
2022/06/28 06:45:40;;;;;;;10.48;3.92;;;20.20;68.10;;;;;;5034074;28;20029;-63
2022/06/28 06:48:06;;;;;;;9.93;3.90;;;20.30;68.00;;;;;;5048878;28;20029;-63
2022/06/28 06:50:32;;;;;;;8.40;3.42;;;20.30;67.70;;;;;;5050515;28;20017;-63
2022/06/28 06:52:58;;;;;;;8.13;3.95;;;20.50;67.60;;;;;;5048275;28;20021;-63
2022/06/28 06:55:24;;;;;;;8.95;3.58;;;20.60;67.30;;;;;;5052382;28;20021;-63
2022/06/28 06:57:50;;;;;;;12.25;4.57;;;20.80;67.00;;;;;;5044977;28;20346;-63
2022/06/28 07:00:16;;;;;;;12.35;4.03;;;20.90;66.60;;;;;;5046587;28;20036;-64
2022/06/28 07:02:43;;;;;;;9.10;4.15;;;21.00;66.30;;;;;;5044783;28;20017;-63
2022/06/28 07:05:10;;;;;;;12.75;4.50;;;21.10;66.10;;;;;;5028379;28;20036;-63
2022/06/28 07:07:36;;;;;;;12.13;4.18;;;21.10;65.90;;;;;;5050165;28;20310;-63
2022/06/28 07:10:03;;;;;;;9.57;4.15;;;21.30;65.70;;;;;;5037078;28;20119;-63
2022/06/28 07:12:30;;;;;;;15.10;4.72;;;21.40;65.30;;;;;;5046199;28;20480;-64
2022/06/28 07:14:56;;;;;;;10.85;3.80;;;21.50;64.90;;;;;;5042728;28;20124;-64
2022/06/28 07:17:25;;;;;;;19.33;5.32;;;21.50;64.50;;;;;;5045895;28;20419;-63
2022/06/28 07:19:51;;;;;;;10.75;3.72;;;21.60;64.30;;;;;;5047657;28;20047;-63
2022/06/28 07:22:17;;;;;;;11.68;3.78;;;21.80;64.10;;;;;;5047757;28;20029;-63
2022/06/28 07:24:44;;;;;;;10.93;3.95;;;21.80;63.70;;;;;;5050727;28;20028;-63
2022/06/28 07:27:10;;;;;;;8.52;2.85;;;21.90;63.40;;;;;;5053531;28;20115;-63
2022/06/28 07:29:36;;;;;;;8.77;3.33;;;22.00;63.20;;;;;;5047411;28;20025;-64
2022/06/28 07:32:02;;;;;;;11.57;3.35;;;22.10;63.00;;;;;;5050922;28;20453;-63
2022/06/28 07:34:30;;;;;;;9.23;2.88;;;22.20;62.70;;;;;;5033993;28;20030;-63
2022/06/28 07:36:55;;;;;;;8.50;2.95;;;22.40;62.40;;;;;;5034217;28;20056;-64
2022/06/28 07:39:21;;;;;;;7.28;2.78;;;22.60;61.70;;;;;;5037456;28;20036;-63
2022/06/28 07:42:13;;;;;;;6.72;2.60;;;22.80;61.30;;;;;;5032581;28;20044;-64
2022/06/28 07:44:57;;;;;;;7.43;2.95;;;23.00;60.70;;;;;;5047628;28;20509;-64
2022/06/28 07:47:22;;;;;;;7.97;2.75;;;22.90;60.50;;;;;;5033577;28;20069;-64
2022/06/28 07:52:37;;;;;;;8.45;2.80;;;23.00;59.80;;;;;;5038295;28;20029;-64
2022/06/28 07:55:08;;;;;;;11.25;2.83;;;23.20;59.40;;;;;;5039400;28;20047;-64
2022/06/28 07:57:52;;;;;;;7.70;2.70;;;23.30;59.10;;;;;;5050186;28;20091;-64
2022/06/28 08:00:21;;;;;;;9.52;3.30;;;23.50;58.70;;;;;;5042618;28;20028;-64
2022/06/28 08:02:57;;;;;;;9.57;3.10;;;23.60;58.10;;;;;;5039699;28;20335;-64
2022/06/28 08:05:23;;;;;;;9.50;2.70;;;23.70;57.50;;;;;;5035647;28;20079;-65
2022/06/28 08:07:49;;;;;;;11.13;3.03;;;23.70;57.40;;;;;;5047586;28;20035;-64
2022/06/28 08:10:16;;;;;;;11.10;3.00;;;23.90;57.20;;;;;;5034424;28;20124;-64
2022/06/28 08:12:42;;;;;;;7.72;2.28;;;24.00;57.00;;;;;;5043201;28;20029;-66
2022/06/28 08:15:08;;;;;;;9.25;2.58;;;24.00;56.50;;;;;;5042417;28;20061;-64
2022/06/28 08:17:34;;;;;;;8.15;2.17;;;24.10;56.00;;;;;;5031072;28;20053;-64
2022/06/28 08:20:00;;;;;;;7.40;2.10;;;24.20;55.70;;;;;;5046382;28;20036;-64
2022/06/28 08:22:26;;;;;;;7.40;2.38;;;24.20;55.50;;;;;;5048905;28;20025;-64
2022/06/28 08:24:52;;;;;;;7.07;2.30;;;24.30;55.20;;;;;;5041412;28;20373;-64
2022/06/28 08:27:19;;;;;;;8.73;2.50;;;24.30;54.70;;;;;;5057091;28;20025;-64
2022/06/28 08:29:46;;;;;;;9.63;2.08;;;24.40;54.60;;;;;;5052174;28;20032;-64
2022/06/28 08:32:13;;;;;;;7.70;2.30;;;24.50;54.40;;;;;;5040619;28;20025;-63
2022/06/28 08:34:39;;;;;;;6.15;1.92;;;24.60;54.10;;;;;;5030070;28;20047;-63
2022/06/28 08:37:06;;;;;;;8.82;2.20;;;24.70;53.50;;;;;;5057970;28;20346;-64
2022/06/28 08:39:32;;;;;;;7.80;2.13;;;24.80;53.10;;;;;;5058141;28;20041;-63
2022/06/28 08:42:04;;;;;;;8.18;2.00;;;24.90;52.40;;;;;;5047023;28;20049;-64
2022/06/28 08:44:32;;;;;;;8.07;2.00;;;24.90;51.60;;;;;;5048001;28;20041;-64
2022/06/28 08:46:59;;;;;;;7.32;2.53;;;25.00;51.60;;;;;;5049852;28;20063;-63
2022/06/28 08:49:33;;;;;;;7.32;2.10;;;25.10;51.30;;;;;;5047405;28;20025;-64
2022/06/28 08:51:59;;;;;;;5.95;1.60;;;25.20;50.70;;;;;;5040970;28;20033;-64
2022/06/28 08:54:27;;;;;;;6.35;1.52;;;25.30;50.20;;;;;;5042921;28;20056;-63
2022/06/28 08:56:56;;;;;;;8.57;1.63;;;25.30;49.70;;;;;;5037215;28;20368;-64
2022/06/28 08:59:22;;;;;;;8.68;2.55;;;25.40;49.80;;;;;;5047479;28;20057;-63
2022/06/28 09:01:49;;;;;;;6.53;2.13;;;25.50;49.60;;;;;;5052975;28;20147;-64
2022/06/28 09:04:15;;;;;;;9.73;2.40;;;25.50;49.40;;;;;;5050793;28;20096;-64
2022/06/28 09:06:41;;;;;;;8.25;2.33;;;25.50;49.30;;;;;;5043477;28;20116;-64
2022/06/28 09:09:07;;;;;;;5.95;1.85;;;25.60;49.10;;;;;;5050156;28;20040;-64
2022/06/28 09:11:42;;;;;;;4.55;1.35;;;25.70;48.90;;;;;;5046702;28;20033;-63
2022/06/28 09:14:34;;;;;;;7.32;1.65;;;25.80;48.30;;;;;;5046294;28;20032;-65
2022/06/28 09:17:19;;;;;;;4.45;1.40;;;25.90;48.20;;;;;;5047225;28;20045;-63
2022/06/28 09:19:45;;;;;;;4.55;1.30;;;25.90;48.00;;;;;;5055562;28;20045;-64
2022/06/28 09:22:27;;;;;;;6.88;1.45;;;26.00;48.00;;;;;;5047228;28;20434;-64
2022/06/28 09:24:52;;;;;;;7.43;1.63;;;26.10;46.90;;;;;;5057505;28;20120;-64
2022/06/28 09:27:30;;;;;;;5.10;1.40;;;26.10;46.80;;;;;;5051802;28;20061;-64
2022/06/28 09:29:56;;;;;;;4.57;1.10;;;26.20;46.40;;;;;;5040643;28;20396;-64
2022/06/28 09:32:28;;;;;;;5.40;1.27;;;26.30;46.40;;;;;;5053279;28;20127;-64
2022/06/28 09:34:57;;;;;;;5.28;1.90;;;26.30;45.80;;;;;;5050867;28;20039;-64
2022/06/28 09:37:47;;;;;;;5.82;1.50;;;26.40;45.50;;;;;;5048729;28;20363;-64
2022/06/28 09:40:36;;;;;;;4.88;1.58;;;26.50;45.10;;;;;;5050987;28;20021;-64
2022/06/28 09:43:12;;;;;;;3.60;1.30;;;26.50;45.10;;;;;;5056819;28;20099;-64
2022/06/28 09:45:40;;;;;;;5.70;1.63;;;26.60;45.20;;;;;;5055205;28;20033;-64
2022/06/28 09:48:07;;;;;;;5.00;1.13;;;26.70;45.30;;;;;;5043810;28;20121;-64
2022/06/28 09:50:35;;;;;;;5.07;1.17;;;26.80;45.30;;;;;;5046010;28;20037;-64
2022/06/28 09:53:01;;;;;;;4.07;1.15;;;26.90;45.40;;;;;;5042234;28;20025;-64
2022/06/28 09:55:28;;;;;;;5.55;1.35;;;26.90;44.80;;;;;;5048107;28;20037;-64
2022/06/28 09:57:55;;;;;;;6.70;1.35;;;26.90;44.00;;;;;;5049367;28;20017;-64
2022/06/28 10:00:24;;;;;;;6.05;1.50;;;26.80;44.00;;;;;;5046155;28;20029;-64
2022/06/28 10:02:52;;;;;;;6.18;1.55;;;26.80;44.00;;;;;;5051288;28;20035;-64
2022/06/28 10:05:19;;;;;;;4.57;1.30;;;26.80;43.50;;;;;;5052408;28;20064;-63
2022/06/28 10:07:45;;;;;;;2.17;0.90;;;26.90;43.60;;;;;;5041917;28;20029;-65
2022/06/28 10:10:11;;;;;;;3.65;1.33;;;27.00;43.40;;;;;;5041006;28;20443;-64
2022/06/28 10:15:34;;;;;;;4.32;1.17;;;27.20;42.60;;;;;;5044755;28;20049;-64
2022/06/28 10:18:17;;;;;;;2.47;1.02;;;27.20;42.70;;;;;;5045612;28;20063;-64
2022/06/28 10:20:44;;;;;;;4.55;1.20;;;27.20;42.80;;;;;;5050493;28;20029;-64
2022/06/28 10:23:24;;;;;;;6.20;1.52;;;27.20;42.70;;;;;;5054827;28;20025;-64
2022/06/28 10:26:14;;;;;;;4.38;1.08;;;27.20;42.50;;;;;;5055899;28;20040;-64
2022/06/28 10:29:02;;;;;;;2.45;0.95;;;27.20;42.50;;;;;;5047299;28;20388;-64
2022/06/28 10:31:30;;;;;;;3.53;1.27;;;27.20;42.20;;;;;;5043776;28;20029;-64
2022/06/28 10:34:02;;;;;;;3.83;1.25;;;27.20;41.90;;;;;;5054839;28;20040;-64
2022/06/28 10:36:39;;;;;;;5.25;1.30;;;27.20;41.80;;;;;;5046887;28;20025;-64
2022/06/28 10:39:08;;;;;;;4.85;1.20;;;27.30;41.90;;;;;;5042897;28;20025;-64
2022/06/28 10:41:47;;;;;;;4.75;1.17;;;27.30;41.40;;;;;;5043754;28;20118;-64
2022/06/28 10:44:16;;;;;;;3.63;1.00;;;27.30;41.10;;;;;;5045466;28;20051;-65
2022/06/28 10:47:02;;;;;;;3.17;1.10;;;27.40;41.30;;;;;;5049907;28;20039;-65
2022/06/28 10:49:56;;;;;;;5.70;1.30;;;27.40;41.00;;;;;;5043720;28;20028;-64
2022/06/28 10:52:32;;;;;;;2.40;1.05;;;27.50;40.80;;;;;;5041645;28;20036;-64
2022/06/28 10:54:58;;;;;;;4.38;1.30;;;27.40;40.70;;;;;;5053288;28;20115;-64
2022/06/28 10:57:30;;;;;;;3.88;1.00;;;27.40;40.60;;;;;;5051347;28;20171;-65
2022/06/28 10:59:58;;;;;;;4.80;0.90;;;27.40;40.90;;;;;;5039912;28;20347;-64
2022/06/28 11:02:43;;;;;;;5.50;1.13;;;27.40;41.50;;;;;;5044738;28;20021;-64
2022/06/28 11:05:09;;;;;;;3.30;1.00;;;27.40;41.50;;;;;;5040699;28;20356;-65
2022/06/28 11:07:37;;;;;;;4.70;1.60;;;27.50;41.40;;;;;;5052482;28;20135;-65
2022/06/28 11:10:11;;;;;;;1.17;0.80;;;27.50;41.30;;;;;;5045254;28;20416;-65
2022/06/28 11:12:40;;;;;;;4.18;1.20;;;27.60;41.50;;;;;;5050615;28;20040;-66
2022/06/28 11:15:32;;;;;;;4.55;0.95;;;27.60;41.30;;;;;;5015921;28;20459;-65
2022/06/28 11:17:59;;;;;;;15.15;1.10;;;27.60;41.00;;;;;;5030868;28;20057;-66
2022/06/28 11:20:27;;;;;;;3.00;1.10;;;27.40;41.00;;;;;;5042439;28;20112;-65
2022/06/28 11:22:53;;;;;;;3.38;0.98;;;27.40;41.20;;;;;;5049677;28;20093;-65
2022/06/28 11:25:25;;;;;;;3.95;0.90;;;27.40;41.50;;;;;;5043860;28;20428;-65
2022/06/28 11:27:56;;;;;;;5.55;1.30;;;27.40;41.50;;;;;;5031453;28;20410;-65
2022/06/28 11:30:26;;;;;;;3.65;1.13;;;27.50;41.20;;;;;;5043775;28;20029;-65
2022/06/28 11:32:55;;;;;;;4.63;1.10;;;27.50;41.20;;;;;;5040973;28;20026;-66
2022/06/28 11:35:27;;;;;;;3.92;1.20;;;27.60;41.30;;;;;;5043973;28;20032;-66
2022/06/28 11:38:03;;;;;;;5.22;1.27;;;27.70;41.00;;;;;;5032506;28;20418;-66
2022/06/28 11:40:40;;;;;;;3.00;1.08;;;27.60;41.20;;;;;;5042911;28;20049;-65
2022/06/28 11:43:08;;;;;;;2.55;1.00;;;27.60;41.10;;;;;;5029207;28;20038;-65
2022/06/28 11:45:54;;;;;;;3.15;1.13;;;27.60;41.00;;;;;;5037507;28;20025;-66
2022/06/28 11:48:23;;;;;;;3.50;0.95;;;27.50;41.40;;;;;;5030312;28;20029;-65
2022/06/28 11:50:53;;;;;;;4.75;0.85;;;27.50;41.30;;;;;;5049347;28;20021;-65
2022/06/28 11:53:20;;;;;;;3.38;1.00;;;27.60;41.60;;;;;;5050692;28;20030;-65
2022/06/28 11:55:57;;;;;;;5.28;1.23;;;27.60;41.80;;;;;;5045806;28;20021;-65
2022/06/28 11:58:28;;;;;;;2.50;0.98;;;27.60;41.70;;;;;;5018296;28;20046;-65
2022/06/28 12:01:15;;;;;;;3.45;1.13;;;27.60;41.60;;;;;;5029104;28;20029;-65
2022/06/28 12:03:41;;;;;;;3.45;1.10;;;27.40;41.50;;;;;;5042368;28;20037;-65
2022/06/28 12:06:08;;;;;;;3.65;0.93;;;27.40;42.00;;;;;;5034911;28;20117;-64
2022/06/28 12:08:57;;;;;;;3.03;1.10;;;27.30;41.90;;;;;;5044857;28;20379;-64
2022/06/28 12:11:45;;;;;;;3.67;0.95;;;27.40;42.10;;;;;;5030218;28;20517;-65
2022/06/28 12:14:13;;;;;;;3.55;1.00;;;27.30;42.10;;;;;;5027948;28;20033;-65
2022/06/28 12:16:51;;;;;;;5.22;1.33;;;27.20;42.40;;;;;;5030473;28;20029;-65
2022/06/28 12:19:42;;;;;;;4.45;1.30;;;27.20;42.30;;;;;;5025271;28;20355;-65
2022/06/28 12:22:13;;;;;;;3.55;1.20;;;27.10;42.20;;;;;;5021114;28;20061;-65
2022/06/28 12:24:55;;;;;;;4.97;1.00;;;27.00;42.40;;;;;;5019497;28;20043;-65
2022/06/28 12:27:28;;;;;;;6.10;1.30;;;27.00;42.50;;;;;;5030358;28;20033;-65
2022/06/28 12:29:56;;;;;;;3.15;0.90;;;27.00;42.70;;;;;;5014665;28;20113;-65
2022/06/28 12:32:23;;;;;;;3.42;1.35;;;26.90;42.90;;;;;;5018313;28;20057;-65
2022/06/28 12:35:04;;;;;;;2.83;1.10;;;26.90;42.90;;;;;;5015028;28;20026;-65
2022/06/28 12:37:31;;;;;;;4.35;1.30;;;26.70;43.20;;;;;;5014667;28;20348;-65
2022/06/28 12:39:57;;;;;;;3.67;1.20;;;26.40;43.40;;;;;;5014388;28;20029;-65
2022/06/28 12:42:23;;;;;;;6.32;1.80;;;26.20;43.60;;;;;;4994227;28;20121;-65
2022/06/28 12:44:49;;;;;;;3.05;1.17;;;26.00;43.70;;;;;;5031308;28;20117;-66
2022/06/28 12:47:16;;;;;;;3.95;1.27;;;25.90;43.70;;;;;;4999268;28;20112;-64
2022/06/28 12:49:41;;;;;;;3.67;1.23;;;25.70;43.90;;;;;;5012186;28;20037;-65
2022/06/28 12:52:07;;;;;;;5.75;1.55;;;25.60;44.20;;;;;;4996984;28;20079;-65
2022/06/28 12:54:33;;;;;;;3.60;0.82;;;25.40;44.40;;;;;;5018155;28;20116;-65
2022/06/28 12:56:58;;;;;;;3.80;1.42;;;25.40;44.50;;;;;;5019777;28;20030;-65
2022/06/28 12:59:24;;;;;;;2.67;0.85;;;25.40;44.40;;;;;;5019303;28;20049;-64
2022/06/28 13:01:50;;;;;;;4.50;1.13;;;25.50;44.40;;;;;;5016530;28;20057;-64
2022/06/28 13:04:16;;;;;;;5.22;1.50;;;25.50;44.40;;;;;;5013567;28;20038;-65
2022/06/28 13:06:44;;;;;;;4.75;1.25;;;25.50;44.40;;;;;;5015818;28;20037;-64
2022/06/28 13:09:11;;;;;;;4.47;1.35;;;25.50;44.50;;;;;;5015055;28;20041;-65
2022/06/28 13:11:37;;;;;;;5.10;1.33;;;25.40;44.40;;;;;;5014172;28;20033;-65
2022/06/28 13:14:04;;;;;;;4.07;1.13;;;25.40;44.50;;;;;;5016874;28;20352;-65